Time;durP1;ratioP1;P1;durP2;ratioP2;P2;SDS_P1;SDS_P2;PMS_P1;PMS_P2;Temp;Humidity;BMP_temperature;BMP_pressure;BME280_temperature;BME280_humidity;BME280_pressure;Samples;Min_cycle;Max_cycle;Signal;HPM_P1;HPM_P2
2022/07/21 00:02:10;;;;;;;5.87;5.40;;;29.30;52.40;;;;;;5046859;28;20959;-48
2022/07/21 00:04:38;;;;;;;5.27;4.97;;;29.30;52.50;;;;;;5049618;28;20481;-48
2022/07/21 00:07:07;;;;;;;5.90;5.43;;;29.30;53.20;;;;;;5051968;28;20478;-48
2022/07/21 00:09:36;;;;;;;5.67;5.17;;;29.30;55.60;;;;;;5051666;28;20485;-47
2022/07/21 00:12:06;;;;;;;5.60;5.10;;;29.30;48.60;;;;;;5051786;28;20467;-47
2022/07/21 00:14:34;;;;;;;6.20;5.70;;;29.30;48.60;;;;;;5050024;28;20474;-47
2022/07/21 00:17:03;;;;;;;5.30;4.90;;;29.20;48.50;;;;;;5032396;28;20558;-48
2022/07/21 00:19:32;;;;;;;5.80;5.40;;;29.30;48.60;;;;;;5049737;28;20533;-47
2022/07/21 00:22:00;;;;;;;6.33;5.90;;;29.30;48.60;;;;;;5043829;28;20467;-48
2022/07/21 00:24:29;;;;;;;6.00;5.60;;;29.20;48.50;;;;;;5043613;28;20497;-48
2022/07/21 00:26:57;;;;;;;6.30;5.80;;;29.30;48.60;;;;;;5031086;28;20500;-48
2022/07/21 00:29:26;;;;;;;5.97;5.47;;;29.30;48.50;;;;;;5043353;28;20807;-48
2022/07/21 00:31:53;;;;;;;6.53;6.00;;;29.20;48.40;;;;;;5051232;28;20491;-48
2022/07/21 00:34:21;;;;;;;5.20;4.90;;;29.20;48.40;;;;;;5046998;28;20449;-47
2022/07/21 00:36:51;;;;;;;5.20;4.90;;;29.20;48.50;;;;;;5048970;28;20477;-48
2022/07/21 00:39:19;;;;;;;5.50;5.20;;;29.20;48.40;;;;;;5046143;28;20435;-48
2022/07/21 00:41:47;;;;;;;6.30;5.70;;;29.20;48.50;;;;;;5048987;28;20497;-48
2022/07/21 00:44:22;;;;;;;4.40;4.10;;;29.20;48.40;;;;;;5044280;28;20488;-48
2022/07/21 00:46:51;;;;;;;4.97;4.57;;;29.20;48.40;;;;;;5051083;28;20478;-48
2022/07/21 00:49:19;;;;;;;5.57;5.17;;;29.20;48.40;;;;;;5044647;28;20815;-48
2022/07/21 00:51:48;;;;;;;5.57;5.07;;;29.20;48.40;;;;;;5040376;28;20464;-48
2022/07/21 00:54:19;;;;;;;5.50;5.10;;;29.20;48.40;;;;;;5038179;28;20543;-48
2022/07/21 00:56:47;;;;;;;5.40;5.00;;;29.10;48.30;;;;;;5051161;28;20575;-48
2022/07/21 00:59:17;;;;;;;5.10;4.67;;;29.20;48.40;;;;;;5050302;28;20439;-48
2022/07/21 01:01:45;;;;;;;5.60;5.20;;;29.10;48.30;;;;;;5042245;28;20459;-48
2022/07/21 01:04:13;;;;;;;5.33;4.93;;;29.20;48.40;;;;;;5049954;28;20431;-48
2022/07/21 01:06:41;;;;;;;4.83;4.50;;;29.10;48.30;;;;;;5040671;28;20550;-48
2022/07/21 01:09:10;;;;;;;5.00;4.60;;;29.10;48.30;;;;;;5043850;28;20534;-48
2022/07/21 01:11:40;;;;;;;5.80;5.40;;;29.10;48.30;;;;;;5024604;28;20503;-48
2022/07/21 01:14:09;;;;;;;4.80;4.50;;;29.10;48.50;;;;;;5048341;28;20440;-48
2022/07/21 01:16:37;;;;;;;4.97;4.67;;;29.10;48.90;;;;;;5043550;28;20474;-48
2022/07/21 01:19:07;;;;;;;5.00;4.67;;;29.10;49.20;;;;;;5095262;22;20487;-44
2022/07/21 01:21:38;;;;;;;5.73;5.33;;;29.10;49.60;;;;;;5108215;28;20839;-47
2022/07/21 01:24:07;;;;;;;5.20;4.80;;;29.10;50.00;;;;;;5111395;28;20512;-47
2022/07/21 01:26:41;;;;;;;4.50;4.20;;;29.10;49.80;;;;;;5110058;28;20474;-48
2022/07/21 01:29:11;;;;;;;5.83;5.40;;;29.10;49.80;;;;;;5096590;28;20439;-47
2022/07/21 01:31:42;;;;;;;5.10;4.80;;;29.10;50.00;;;;;;5091398;28;20479;-47
2022/07/21 01:34:11;;;;;;;4.43;4.20;;;29.10;50.30;;;;;;5102282;28;20429;-46
2022/07/21 01:36:40;;;;;;;5.27;4.87;;;29.10;50.80;;;;;;5108342;28;20979;-46
2022/07/21 01:41:52;;;;;;;5.17;4.77;;;29.00;51.00;;;;;;5057051;28;20472;-47
2022/07/21 01:44:21;;;;;;;4.63;4.33;;;29.00;51.30;;;;;;5090487;28;20441;-45
2022/07/21 01:46:51;;;;;;;4.63;4.33;;;29.00;52.10;;;;;;5091678;28;20556;-47
2022/07/21 01:49:21;;;;;;;5.17;4.77;;;29.00;52.70;;;;;;5092107;28;20524;-47
2022/07/21 01:51:51;;;;;;;4.57;4.27;;;29.00;55.60;;;;;;5097999;28;20567;-47
2022/07/21 01:54:19;;;;;;;4.70;4.40;;;29.00;50.40;;;;;;5089339;28;20862;-49
2022/07/21 01:56:52;;;;;;;4.43;4.13;;;29.00;50.40;;;;;;5088932;28;20886;-46
2022/07/21 01:59:21;;;;;;;5.40;5.00;;;29.00;50.50;;;;;;5094884;28;21675;-48
2022/07/21 02:01:49;;;;;;;4.80;4.40;;;29.00;50.90;;;;;;5106882;28;20456;-46
2022/07/21 02:04:18;;;;;;;5.40;5.10;;;29.00;50.60;;;;;;5094357;28;20481;-47
2022/07/21 02:06:46;;;;;;;4.90;4.60;;;29.00;50.50;;;;;;5097579;28;20468;-47
2022/07/21 02:09:16;;;;;;;5.70;5.23;;;29.00;50.20;;;;;;5098381;28;20433;-47
2022/07/21 02:11:44;;;;;;;4.97;4.67;;;29.00;50.60;;;;;;5091429;28;20473;-47
2022/07/21 02:14:12;;;;;;;4.50;4.20;;;29.00;50.60;;;;;;5095993;28;20516;-47
2022/07/21 02:16:40;;;;;;;5.00;4.70;;;29.00;50.80;;;;;;5108167;28;20475;-47
2022/07/21 02:19:10;;;;;;;4.63;4.33;;;28.90;50.30;;;;;;5098562;28;20433;-47
2022/07/21 02:21:38;;;;;;;5.23;4.87;;;28.90;48.30;;;;;;5090983;28;20461;-46
2022/07/21 02:24:07;;;;;;;5.40;4.13;;;28.90;48.40;;;;;;5094513;28;20429;-47
2022/07/21 02:26:36;;;;;;;5.10;4.70;;;28.90;48.40;;;;;;5091553;28;20469;-47
2022/07/21 02:29:04;;;;;;;4.60;4.30;;;28.90;48.40;;;;;;5099521;28;20436;-46
2022/07/21 02:31:32;;;;;;;4.13;3.93;;;28.90;48.50;;;;;;5100448;28;21007;-48
2022/07/21 02:34:00;;;;;;;4.87;4.47;;;28.90;48.90;;;;;;5098288;28;20524;-47
2022/07/21 02:36:28;;;;;;;4.73;4.43;;;28.90;52.90;;;;;;5099419;28;20529;-47
2022/07/21 02:38:56;;;;;;;4.17;3.87;;;28.90;48.30;;;;;;5101611;28;21006;-47
2022/07/21 02:41:24;;;;;;;5.33;4.93;;;28.90;48.40;;;;;;5109939;28;20807;-48
2022/07/21 02:43:54;;;;;;;5.20;4.83;;;28.90;48.30;;;;;;5099669;28;20449;-47
2022/07/21 02:46:22;;;;;;;4.60;4.30;;;28.90;48.40;;;;;;5089310;28;20496;-47
2022/07/21 02:48:50;;;;;;;4.30;4.00;;;28.80;48.40;;;;;;5089939;28;20524;-48
2022/07/21 02:51:19;;;;;;;4.70;4.30;;;28.80;48.40;;;;;;5090804;28;20458;-46
2022/07/21 02:53:47;;;;;;;4.90;4.60;;;28.80;48.30;;;;;;5090869;28;20429;-46
2022/07/21 02:56:16;;;;;;;3.97;3.70;;;28.80;48.40;;;;;;5103883;28;20468;-46
2022/07/21 02:58:44;;;;;;;5.27;4.87;;;28.80;48.40;;;;;;5098976;28;20882;-47
2022/07/21 03:01:14;;;;;;;4.90;4.60;;;28.80;48.40;;;;;;5104386;28;20457;-47
2022/07/21 03:03:42;;;;;;;4.67;4.27;;;28.80;48.40;;;;;;5098696;28;20437;-46
2022/07/21 03:06:10;;;;;;;4.80;4.50;;;28.80;48.50;;;;;;5098821;28;20499;-47
2022/07/21 03:08:38;;;;;;;4.33;4.03;;;28.80;48.40;;;;;;5097313;28;20428;-48
2022/07/21 03:11:06;;;;;;;4.60;4.30;;;28.80;48.50;;;;;;5089460;28;20695;-47
2022/07/21 03:13:34;;;;;;;4.67;4.37;;;28.80;48.60;;;;;;5095271;28;20483;-46
2022/07/21 03:16:02;;;;;;;4.13;3.93;;;28.80;48.50;;;;;;5089161;28;20498;-48
2022/07/21 03:18:32;;;;;;;4.50;4.10;;;28.70;48.40;;;;;;5105814;28;20428;-47
2022/07/21 03:21:00;;;;;;;4.40;4.10;;;28.70;48.50;;;;;;5098944;28;20453;-47
2022/07/21 03:23:28;;;;;;;4.30;4.00;;;28.70;48.50;;;;;;5096536;28;20983;-46
2022/07/21 03:25:57;;;;;;;4.77;4.47;;;28.70;48.50;;;;;;5088809;28;20485;-48
2022/07/21 03:28:25;;;;;;;3.83;3.63;;;28.70;48.50;;;;;;5091386;28;20547;-47
2022/07/21 03:30:53;;;;;;;4.73;4.40;;;28.70;48.40;;;;;;5100639;28;20456;-47
2022/07/21 03:33:21;;;;;;;5.20;4.80;;;28.70;48.40;;;;;;5093692;28;20492;-47
2022/07/21 03:35:51;;;;;;;4.07;3.80;;;28.70;48.40;;;;;;5095805;28;20458;-47
2022/07/21 03:38:19;;;;;;;4.27;3.93;;;28.70;48.40;;;;;;5098537;28;20549;-48
2022/07/21 03:40:47;;;;;;;4.47;4.17;;;28.70;48.50;;;;;;5092932;28;20536;-47
2022/07/21 03:43:15;;;;;;;4.77;4.37;;;28.70;49.70;;;;;;5094162;28;20433;-48
2022/07/21 03:45:43;;;;;;;4.57;4.17;;;28.70;48.60;;;;;;5094808;28;20480;-46
2022/07/21 03:48:12;;;;;;;4.13;3.93;;;28.70;48.60;;;;;;5098297;28;20531;-47
2022/07/21 03:50:42;;;;;;;4.57;4.27;;;28.60;48.60;;;;;;5095362;28;20489;-46
2022/07/21 03:53:11;;;;;;;4.00;3.80;;;28.60;48.60;;;;;;5092548;28;20549;-47
2022/07/21 03:55:39;;;;;;;4.33;4.03;;;28.60;48.50;;;;;;5092568;28;20548;-47
2022/07/21 03:58:08;;;;;;;4.53;4.23;;;28.60;48.60;;;;;;5095858;28;20464;-46
2022/07/21 04:00:38;;;;;;;4.83;4.43;;;28.60;48.50;;;;;;5104273;28;20448;-47
2022/07/21 04:03:07;;;;;;;4.47;4.07;;;28.60;48.60;;;;;;5099356;28;20486;-47
2022/07/21 04:05:36;;;;;;;5.10;4.70;;;28.60;48.60;;;;;;5107089;28;20444;-47
2022/07/21 04:08:05;;;;;;;4.47;4.17;;;28.60;48.60;;;;;;5092710;28;20493;-47
2022/07/21 04:10:36;;;;;;;4.63;4.33;;;28.60;48.60;;;;;;5094202;28;20461;-47
2022/07/21 04:13:07;;;;;;;4.20;3.80;;;28.60;48.60;;;;;;5095236;28;20628;-48
2022/07/21 04:15:36;;;;;;;4.93;4.63;;;28.60;48.60;;;;;;5091947;28;20541;-47
2022/07/21 04:18:05;;;;;;;4.83;4.53;;;28.50;48.60;;;;;;5092355;28;20814;-47
2022/07/21 04:20:33;;;;;;;4.40;4.10;;;28.50;48.60;;;;;;5093232;28;20823;-48
2022/07/21 04:23:02;;;;;;;4.20;3.90;;;28.50;48.60;;;;;;5104106;28;20479;-47
2022/07/21 04:25:30;;;;;;;4.60;4.20;;;28.60;48.60;;;;;;5104928;28;20900;-47
2022/07/21 04:28:00;;;;;;;4.10;3.80;;;28.50;48.60;;;;;;5095953;28;20888;-47
2022/07/21 04:30:29;;;;;;;4.20;3.90;;;28.50;48.60;;;;;;5098085;28;20444;-47
2022/07/21 04:32:57;;;;;;;4.50;4.20;;;28.50;48.70;;;;;;5089225;28;20882;-47
2022/07/21 04:35:27;;;;;;;4.20;3.90;;;28.50;48.60;;;;;;5099276;28;20487;-47
2022/07/21 04:37:55;;;;;;;4.03;3.73;;;28.50;48.70;;;;;;5096407;28;20463;-46
2022/07/21 04:40:23;;;;;;;4.33;4.03;;;28.50;48.70;;;;;;5096819;28;20512;-46
2022/07/21 04:42:51;;;;;;;4.90;4.60;;;28.50;48.70;;;;;;5097788;28;20471;-47
2022/07/21 04:45:20;;;;;;;4.80;4.43;;;28.50;48.70;;;;;;5074189;28;20444;-47
2022/07/21 04:47:51;;;;;;;4.10;3.80;;;28.50;48.70;;;;;;5093906;28;20460;-47
2022/07/21 04:50:21;;;;;;;4.50;4.20;;;28.40;48.60;;;;;;5110041;28;20441;-47
2022/07/21 04:52:49;;;;;;;4.10;3.80;;;28.40;48.60;;;;;;5092228;28;20461;-47
2022/07/21 04:55:19;;;;;;;4.13;3.93;;;28.50;48.80;;;;;;5106628;28;20529;-47
2022/07/21 04:57:48;;;;;;;4.20;3.90;;;28.40;48.70;;;;;;5093943;28;20461;-47
2022/07/21 05:00:18;;;;;;;4.43;4.13;;;28.40;48.70;;;;;;5108295;28;20518;-47
2022/07/21 05:02:48;;;;;;;4.00;3.70;;;28.40;48.70;;;;;;5102604;28;20524;-49
2022/07/21 05:05:16;;;;;;;4.27;3.87;;;28.40;48.70;;;;;;5098267;28;20445;-47
2022/07/21 05:07:44;;;;;;;3.77;3.47;;;28.40;48.70;;;;;;5090731;28;20545;-46
2022/07/21 05:10:14;;;;;;;5.90;4.40;;;28.40;48.60;;;;;;5091241;28;20940;-46
2022/07/21 05:12:43;;;;;;;4.60;4.30;;;28.40;48.60;;;;;;5090921;28;20458;-47
2022/07/21 05:15:12;;;;;;;4.40;4.00;;;28.40;48.80;;;;;;5093533;28;20433;-48
2022/07/21 05:17:40;;;;;;;4.50;4.10;;;28.40;48.70;;;;;;5099282;28;20464;-48
2022/07/21 05:20:11;;;;;;;4.30;4.00;;;28.30;48.70;;;;;;5094752;28;20494;-46
2022/07/21 05:22:40;;;;;;;5.50;5.10;;;28.40;48.80;;;;;;5104569;28;21014;-47
2022/07/21 05:25:09;;;;;;;5.70;4.37;;;28.30;48.80;;;;;;5095727;28;20506;-47
2022/07/21 05:27:37;;;;;;;4.10;3.80;;;28.30;48.70;;;;;;5097882;28;21021;-47
2022/07/21 05:30:07;;;;;;;4.73;4.33;;;28.30;48.80;;;;;;5097628;28;20429;-47
2022/07/21 05:32:35;;;;;;;3.63;3.40;;;28.30;48.70;;;;;;5089969;28;20986;-47
2022/07/21 05:35:08;;;;;;;5.95;5.45;;;28.30;48.80;;;;;;5096079;28;20441;-48
2022/07/21 05:37:38;;;;;;;7.00;6.40;;;28.20;49.30;;;;;;5080786;28;20227;-47
2022/07/21 05:40:09;;;;;;;6.23;5.63;;;28.10;49.00;;;;;;5100680;28;20428;-49
2022/07/21 05:42:39;;;;;;;5.93;5.40;;;28.10;49.00;;;;;;5092490;28;20492;-48
2022/07/21 05:45:09;;;;;;;5.43;4.93;;;28.10;49.10;;;;;;5067860;28;20439;-49
2022/07/21 05:47:38;;;;;;;6.50;5.63;;;28.00;49.10;;;;;;5093431;28;21058;-47
2022/07/21 05:50:07;;;;;;;5.23;4.83;;;28.00;49.10;;;;;;5099167;28;20472;-48
2022/07/21 05:52:37;;;;;;;4.63;4.13;;;27.90;49.20;;;;;;5098678;28;20624;-48
2022/07/21 05:55:07;;;;;;;5.47;5.07;;;27.90;49.30;;;;;;5093999;28;20501;-48
2022/07/21 05:57:35;;;;;;;5.83;5.33;;;27.90;49.60;;;;;;5099997;28;20464;-48
2022/07/21 06:00:11;;;;;;;5.60;5.10;;;27.90;49.60;;;;;;5108566;28;20440;-47
2022/07/21 06:02:40;;;;;;;5.33;4.90;;;27.90;49.70;;;;;;5088537;28;20876;-47
2022/07/21 06:05:10;;;;;;;5.63;4.90;;;27.90;49.60;;;;;;5097020;28;20479;-48
2022/07/21 06:07:41;;;;;;;7.07;4.87;;;27.80;49.60;;;;;;5095033;28;20469;-48
2022/07/21 06:10:10;;;;;;;5.10;4.60;;;27.80;49.70;;;;;;5095800;28;20445;-48
2022/07/21 06:12:44;;;;;;;5.77;5.27;;;27.80;49.70;;;;;;5073732;28;20453;-48
2022/07/21 06:15:14;;;;;;;5.43;4.93;;;27.80;49.80;;;;;;5098677;28;20532;-48
2022/07/21 06:17:43;;;;;;;5.93;5.43;;;27.80;50.00;;;;;;5089625;28;20453;-48
2022/07/21 06:20:14;;;;;;;5.40;4.90;;;27.80;50.00;;;;;;5097099;28;20448;-49
2022/07/21 06:22:44;;;;;;;5.13;4.73;;;27.80;50.00;;;;;;5108582;28;20453;-49
2022/07/21 06:25:12;;;;;;;5.47;5.07;;;27.70;50.10;;;;;;5087194;28;20441;-47
2022/07/21 06:27:43;;;;;;;5.93;5.30;;;27.70;50.10;;;;;;5097527;28;20827;-49
2022/07/21 06:30:12;;;;;;;5.63;5.03;;;27.70;50.10;;;;;;5072182;28;21105;-48
2022/07/21 06:32:41;;;;;;;5.03;4.50;;;27.70;50.20;;;;;;5089536;28;20940;-48
2022/07/21 06:35:11;;;;;;;6.23;5.60;;;27.70;50.20;;;;;;5091021;28;20457;-47
2022/07/21 06:37:44;;;;;;;6.17;5.67;;;27.70;50.20;;;;;;5097472;28;20467;-47
2022/07/21 06:40:15;;;;;;;5.97;5.47;;;27.70;50.20;;;;;;5098543;28;20465;-48
2022/07/21 06:42:44;;;;;;;7.10;6.40;;;27.70;50.20;;;;;;5088963;28;20525;-48
2022/07/21 06:45:32;;;;;;;6.23;5.63;;;27.70;50.10;;;;;;5093368;28;20801;-48
2022/07/21 06:48:02;;;;;;;4.90;4.60;;;27.70;50.30;;;;;;5089426;28;20461;-48
2022/07/21 06:50:31;;;;;;;5.97;5.50;;;27.80;50.40;;;;;;5104712;28;20432;-48
2022/07/21 06:53:00;;;;;;;8.83;5.33;;;27.70;50.40;;;;;;5092040;28;20437;-48
2022/07/21 06:55:30;;;;;;;5.60;5.20;;;27.80;50.60;;;;;;5103233;28;20525;-48
2022/07/21 06:57:58;;;;;;;5.13;4.60;;;27.70;50.40;;;;;;5098360;28;20441;-48
2022/07/21 07:00:27;;;;;;;4.90;4.50;;;27.70;50.30;;;;;;5096165;28;20444;-48
2022/07/21 07:02:55;;;;;;;4.63;4.17;;;27.70;50.20;;;;;;5089260;28;20432;-47
2022/07/21 07:05:23;;;;;;;4.30;4.00;;;27.60;50.10;;;;;;5089777;28;20465;-48
2022/07/21 07:07:51;;;;;;;4.40;4.10;;;27.60;50.10;;;;;;5088798;28;20527;-46
2022/07/21 07:10:20;;;;;;;4.60;4.27;;;27.60;50.00;;;;;;5089723;28;20487;-46
2022/07/21 07:12:50;;;;;;;4.57;4.20;;;27.60;50.10;;;;;;5097915;28;20428;-47
2022/07/21 07:15:39;;;;;;;4.30;3.90;;;27.60;50.00;;;;;;5096666;28;20457;-47
2022/07/21 07:18:07;;;;;;;4.10;3.80;;;27.60;49.90;;;;;;5106136;28;20517;-48
2022/07/21 07:20:36;;;;;;;4.30;3.90;;;27.60;49.70;;;;;;5094543;28;20481;-47
2022/07/21 07:23:04;;;;;;;4.50;4.10;;;27.60;49.80;;;;;;5099180;28;20437;-47
2022/07/21 07:25:33;;;;;;;4.10;3.80;;;27.60;51.00;;;;;;5105134;28;20911;-47
2022/07/21 07:28:02;;;;;;;4.10;3.80;;;27.60;49.80;;;;;;5107318;28;20882;-48
2022/07/21 07:33:12;;;;;;;5.00;4.50;;;27.60;49.80;;;;;;5068220;28;20465;-48
2022/07/21 07:35:40;;;;;;;3.77;3.57;;;27.60;49.50;;;;;;5067756;28;20493;-48
2022/07/21 07:38:14;;;;;;;3.67;3.37;;;27.60;49.50;;;;;;5068639;28;20522;-48
2022/07/21 07:40:42;;;;;;;4.73;3.70;;;27.60;49.40;;;;;;5052829;28;20466;-48
2022/07/21 07:43:12;;;;;;;4.10;3.80;;;27.60;49.50;;;;;;5058613;28;20419;-48
2022/07/21 07:45:40;;;;;;;4.13;3.77;;;27.60;49.50;;;;;;5058457;28;20454;-48
2022/07/21 07:48:08;;;;;;;4.27;3.97;;;27.60;49.50;;;;;;5073758;28;20484;-48
2022/07/21 07:50:36;;;;;;;4.17;3.87;;;27.60;49.60;;;;;;5066362;28;20469;-48
2022/07/21 07:53:05;;;;;;;4.50;4.10;;;27.60;49.50;;;;;;5064688;28;20858;-48
2022/07/21 07:55:34;;;;;;;4.80;4.37;;;27.60;49.60;;;;;;5042433;28;20509;-48
2022/07/21 07:58:02;;;;;;;6.33;4.33;;;27.60;49.50;;;;;;5050349;28;20474;-48
2022/07/21 08:00:32;;;;;;;6.63;4.60;;;27.60;49.20;;;;;;5032425;28;20439;-48
2022/07/21 08:03:21;;;;;;;4.13;3.73;;;27.60;49.30;;;;;;5040078;28;20462;-48
2022/07/21 08:05:49;;;;;;;4.33;4.03;;;27.60;49.30;;;;;;5058308;28;20461;-48
2022/07/21 08:08:18;;;;;;;4.40;4.00;;;27.60;49.30;;;;;;5044593;28;20477;-48
2022/07/21 08:10:49;;;;;;;6.10;5.00;;;27.60;49.40;;;;;;5052885;28;20500;-48
2022/07/21 08:13:19;;;;;;;4.37;4.07;;;27.60;49.30;;;;;;5047679;28;20778;-48
2022/07/21 08:15:49;;;;;;;4.97;4.57;;;27.60;49.30;;;;;;5034623;28;20821;-48
2022/07/21 08:18:18;;;;;;;4.60;4.30;;;27.60;49.40;;;;;;5053456;28;20470;-48
2022/07/21 08:20:48;;;;;;;4.67;4.30;;;27.60;49.30;;;;;;5058375;28;20468;-48
2022/07/21 08:23:17;;;;;;;5.00;4.60;;;27.60;49.30;;;;;;5057269;28;20439;-48
2022/07/21 08:25:46;;;;;;;5.07;3.97;;;27.60;49.10;;;;;;5050694;28;20474;-48
2022/07/21 08:28:14;;;;;;;5.03;4.63;;;27.60;49.10;;;;;;5059150;28;20983;-48
2022/07/21 08:30:43;;;;;;;4.00;3.70;;;27.60;48.90;;;;;;5057167;28;20558;-48
2022/07/21 08:33:16;;;;;;;4.83;4.07;;;27.50;48.90;;;;;;5067558;28;20462;-48
2022/07/21 08:35:44;;;;;;;4.30;4.00;;;27.50;49.00;;;;;;5050631;28;20466;-48
2022/07/21 08:38:13;;;;;;;4.30;3.90;;;27.50;48.90;;;;;;5046862;28;20447;-48
2022/07/21 08:40:45;;;;;;;4.47;4.17;;;27.50;48.90;;;;;;5054656;28;20517;-48
2022/07/21 08:43:15;;;;;;;3.70;3.40;;;27.50;48.90;;;;;;5046763;28;20534;-48
2022/07/21 08:45:43;;;;;;;4.23;3.93;;;27.50;48.70;;;;;;5052011;28;20520;-48
2022/07/21 08:48:18;;;;;;;4.43;4.07;;;27.50;48.90;;;;;;5049977;28;20450;-48
2022/07/21 08:50:48;;;;;;;4.90;4.50;;;27.50;48.80;;;;;;5053929;28;20508;-48
2022/07/21 08:53:16;;;;;;;4.53;3.70;;;27.50;48.80;;;;;;5061903;28;20524;-48
2022/07/21 08:55:44;;;;;;;4.03;3.60;;;27.50;48.90;;;;;;5053317;28;20525;-48
2022/07/21 08:58:14;;;;;;;3.40;3.20;;;27.50;48.90;;;;;;5046583;28;20459;-47
2022/07/21 09:00:45;;;;;;;4.03;3.73;;;27.50;48.90;;;;;;5058841;28;20511;-48
2022/07/21 09:03:19;;;;;;;6.00;5.40;;;27.50;48.80;;;;;;5067664;28;20443;-55
2022/07/21 09:06:07;;;;;;;4.77;4.37;;;27.50;48.60;;;;;;5077795;28;20461;-50
2022/07/21 09:08:38;;;;;;;3.87;3.50;;;27.50;48.70;;;;;;5052438;28;20438;-48
2022/07/21 09:11:16;;;;;;;3.30;3.00;;;27.50;48.70;;;;;;5045109;28;20476;-48
2022/07/21 09:13:51;;;;;;;4.03;3.73;;;27.50;48.40;;;;;;5056872;28;20443;-48
2022/07/21 09:16:38;;;;;;;4.00;3.70;;;27.50;48.30;;;;;;5052239;28;20463;-48
2022/07/21 09:19:17;;;;;;;4.30;4.00;;;27.50;48.30;;;;;;5044788;28;20445;-49
2022/07/21 09:21:46;;;;;;;4.60;3.40;;;27.50;48.30;;;;;;5041278;28;20539;-48
2022/07/21 09:24:18;;;;;;;4.53;4.07;;;27.50;48.30;;;;;;5057133;28;20422;-48
2022/07/21 09:27:02;;;;;;;4.20;3.80;;;27.50;48.10;;;;;;5062131;28;21007;-48
2022/07/21 09:29:38;;;;;;;4.03;3.70;;;27.50;48.20;;;;;;5042484;28;20934;-48
2022/07/21 09:32:19;;;;;;;4.17;3.80;;;27.50;48.30;;;;;;5029064;28;20466;-48
2022/07/21 09:34:53;;;;;;;4.17;3.77;;;27.50;48.40;;;;;;5056829;28;20462;-48
2022/07/21 09:37:23;;;;;;;3.50;3.30;;;27.50;48.10;;;;;;5047125;28;20536;-48
2022/07/21 09:39:55;;;;;;;3.63;3.33;;;27.50;48.10;;;;;;5055926;28;20435;-49
2022/07/21 09:42:26;;;;;;;4.13;3.73;;;27.50;48.10;;;;;;5057715;28;20806;-49
2022/07/21 09:44:56;;;;;;;4.57;4.17;;;27.40;47.90;;;;;;5044025;28;20897;-49
2022/07/21 09:47:27;;;;;;;4.00;3.70;;;27.40;48.10;;;;;;5065564;28;20470;-48
2022/07/21 09:50:00;;;;;;;3.20;3.00;;;27.40;48.10;;;;;;5050140;28;20504;-48
2022/07/21 09:52:49;;;;;;;3.83;3.53;;;27.40;48.20;;;;;;5051263;28;20486;-48
2022/07/21 09:55:19;;;;;;;4.23;3.93;;;27.50;48.20;;;;;;5050778;28;20442;-48
2022/07/21 09:57:47;;;;;;;3.80;3.37;;;27.50;48.30;;;;;;5052702;28;20471;-48
2022/07/21 10:00:19;;;;;;;4.33;3.93;;;27.40;48.00;;;;;;5050365;28;20530;-48
2022/07/21 10:02:50;;;;;;;4.00;3.70;;;27.50;48.00;;;;;;5055540;28;20459;-48
2022/07/21 10:05:22;;;;;;;3.80;3.60;;;27.40;48.00;;;;;;5054941;28;20488;-49
2022/07/21 10:08:04;;;;;;;3.90;3.60;;;27.40;48.20;;;;;;5049381;28;20459;-48
2022/07/21 10:10:35;;;;;;;4.20;3.90;;;27.40;48.10;;;;;;5049338;28;20500;-48
2022/07/21 10:13:24;;;;;;;4.20;3.90;;;27.40;48.30;;;;;;5055395;28;20426;-48
2022/07/21 10:15:54;;;;;;;3.80;3.60;;;27.40;48.30;;;;;;5052883;28;21037;-48
2022/07/21 10:18:26;;;;;;;4.10;3.70;;;27.40;48.50;;;;;;5049877;28;20489;-48
2022/07/21 10:21:02;;;;;;;4.63;4.33;;;27.40;48.60;;;;;;5052737;28;20517;-48
2022/07/21 10:23:38;;;;;;;4.20;3.90;;;27.40;49.70;;;;;;5057568;28;20429;-48
2022/07/21 10:26:07;;;;;;;4.40;4.10;;;27.40;48.60;;;;;;5050742;28;20450;-48
2022/07/21 10:28:36;;;;;;;4.37;4.07;;;27.40;48.60;;;;;;5052176;28;20435;-48
2022/07/21 10:31:16;;;;;;;4.27;3.97;;;27.30;48.60;;;;;;5045529;28;20451;-48
2022/07/21 10:34:09;;;;;;;4.50;4.10;;;27.40;48.70;;;;;;5039625;28;20451;-48
2022/07/21 10:36:47;;;;;;;4.10;3.80;;;27.30;48.60;;;;;;5046952;28;20550;-47
2022/07/21 10:39:24;;;;;;;4.60;4.20;;;27.30;48.80;;;;;;5044886;28;20431;-47
2022/07/21 10:42:01;;;;;;;4.13;3.83;;;27.30;48.90;;;;;;5051526;28;20956;-48
2022/07/21 10:44:44;;;;;;;4.00;3.57;;;27.30;49.00;;;;;;5054117;28;20427;-48
2022/07/21 10:47:15;;;;;;;3.90;3.60;;;27.30;49.10;;;;;;5025437;28;20520;-48
2022/07/21 10:49:46;;;;;;;3.90;3.60;;;27.30;49.30;;;;;;5046460;28;20444;-48
2022/07/21 10:53:07;;;;;;;3.40;3.10;;;27.30;49.30;;;;;;5048813;28;20458;-48
2022/07/21 10:55:38;;;;;;;4.50;4.10;;;27.30;49.40;;;;;;5045482;28;22836;-48
2022/07/21 10:58:13;;;;;;;4.47;3.73;;;27.30;50.70;;;;;;5055861;28;20517;-47
2022/07/21 11:00:49;;;;;;;4.50;4.20;;;27.30;49.50;;;;;;5045801;28;20470;-47
2022/07/21 11:03:22;;;;;;;4.53;4.13;;;27.30;49.60;;;;;;5057306;28;20426;-48
2022/07/21 11:06:21;;;;;;;3.97;3.67;;;27.20;49.50;;;;;;5052787;28;21051;-48
2022/07/21 11:09:14;;;;;;;4.50;4.10;;;27.30;49.70;;;;;;5057685;28;20438;-48
2022/07/21 11:14:41;;;;;;;3.67;3.37;;;27.30;49.60;;;;;;5104365;27;20686;-47
2022/07/21 11:17:12;;;;;;;4.60;4.20;;;27.30;49.70;;;;;;5061444;27;20462;-50
2022/07/21 11:19:46;;;;;;;4.60;4.20;;;27.30;49.80;;;;;;5045093;28;20444;-48
2022/07/21 11:22:17;;;;;;;3.70;3.40;;;27.20;49.80;;;;;;5046785;28;20570;-49
2022/07/21 11:24:46;;;;;;;3.70;3.50;;;27.20;50.00;;;;;;5053806;28;20509;-47
2022/07/21 11:27:17;;;;;;;4.53;4.23;;;27.30;50.00;;;;;;5054097;28;20474;-50
2022/07/21 11:29:55;;;;;;;3.83;3.53;;;27.20;49.80;;;;;;5045306;28;20449;-47
2022/07/21 11:32:24;;;;;;;4.43;4.00;;;27.30;50.00;;;;;;5051171;28;20472;-47
2022/07/21 11:34:55;;;;;;;5.10;4.60;;;27.20;50.00;;;;;;5042623;28;20448;-49
2022/07/21 11:37:29;;;;;;;4.30;4.00;;;27.20;50.00;;;;;;5045728;28;20489;-49
2022/07/21 11:40:06;;;;;;;3.80;3.50;;;27.20;50.00;;;;;;5037986;28;20492;-48
2022/07/21 11:42:35;;;;;;;4.20;3.90;;;27.20;49.90;;;;;;5035554;28;20849;-48
2022/07/21 11:45:07;;;;;;;4.40;4.00;;;27.20;50.00;;;;;;5033541;28;20862;-49
2022/07/21 11:47:36;;;;;;;3.97;3.67;;;27.20;50.10;;;;;;5034455;28;20470;-49
2022/07/21 11:50:07;;;;;;;3.90;3.60;;;27.20;50.00;;;;;;5027995;28;20459;-48
2022/07/21 11:52:39;;;;;;;4.30;3.90;;;27.20;50.00;;;;;;5034332;28;20459;-47
2022/07/21 11:55:12;;;;;;;3.73;3.43;;;27.20;50.00;;;;;;5031326;28;20818;-48
2022/07/21 11:57:43;;;;;;;4.67;4.27;;;27.20;50.10;;;;;;5034856;28;20537;-49
2022/07/21 12:00:15;;;;;;;4.60;4.20;;;27.20;50.20;;;;;;5045149;28;20474;-48
2022/07/21 12:02:44;;;;;;;4.70;4.30;;;27.20;50.30;;;;;;5037201;28;20851;-48
2022/07/21 12:05:15;;;;;;;3.57;3.27;;;27.20;50.30;;;;;;5038544;28;20506;-47
2022/07/21 12:07:45;;;;;;;3.90;3.60;;;27.20;50.30;;;;;;5025741;28;20458;-53
2022/07/21 12:10:22;;;;;;;3.70;3.40;;;27.10;50.10;;;;;;5026073;28;20923;-47
2022/07/21 12:12:51;;;;;;;3.73;3.43;;;27.20;50.50;;;;;;5027321;28;20463;-46
2022/07/21 12:15:23;;;;;;;4.60;4.30;;;27.10;50.20;;;;;;5032673;28;20493;-48
2022/07/21 12:17:53;;;;;;;3.80;3.50;;;27.10;50.10;;;;;;5009112;28;20460;-46
2022/07/21 12:20:28;;;;;;;4.50;4.10;;;27.10;50.20;;;;;;5034526;28;20443;-47
2022/07/21 12:22:57;;;;;;;4.33;3.93;;;27.20;50.30;;;;;;5037033;28;20466;-48
2022/07/21 12:25:35;;;;;;;3.90;3.60;;;27.10;50.20;;;;;;5020025;28;20429;-48
2022/07/21 12:28:05;;;;;;;3.83;3.53;;;27.10;50.10;;;;;;5012941;28;20467;-47
2022/07/21 12:30:38;;;;;;;4.43;4.13;;;27.10;50.20;;;;;;5013310;28;20985;-48
2022/07/21 12:33:12;;;;;;;4.60;4.10;;;27.10;50.20;;;;;;5012464;28;20548;-49
2022/07/21 12:35:43;;;;;;;3.90;3.60;;;27.10;50.40;;;;;;5018640;28;20461;-49
2022/07/21 12:38:14;;;;;;;4.63;4.07;;;27.10;50.40;;;;;;5026096;28;20444;-49
2022/07/21 12:40:46;;;;;;;4.63;4.23;;;27.10;50.40;;;;;;5029078;28;20467;-48
2022/07/21 12:43:35;;;;;;;4.50;4.20;;;27.10;50.40;;;;;;5015129;28;21013;-48
2022/07/21 12:46:11;;;;;;;4.40;4.00;;;27.10;50.40;;;;;;5019537;28;20472;-47
2022/07/21 12:48:41;;;;;;;4.77;4.37;;;27.10;50.50;;;;;;5012137;28;20785;-49
2022/07/21 12:51:15;;;;;;;4.40;4.10;;;27.10;50.60;;;;;;5017949;28;20486;-48
2022/07/21 12:53:46;;;;;;;3.83;3.53;;;27.10;50.80;;;;;;5014654;28;20798;-48
2022/07/21 12:56:17;;;;;;;4.40;4.07;;;27.10;50.70;;;;;;5017709;28;20477;-46
2022/07/21 12:58:47;;;;;;;4.87;4.47;;;27.10;51.80;;;;;;5011879;28;20531;-47
2022/07/21 13:01:20;;;;;;;4.97;4.60;;;27.10;50.70;;;;;;5021957;28;20460;-48
2022/07/21 13:03:48;;;;;;;4.40;4.00;;;27.10;50.80;;;;;;5019949;28;20429;-47
2022/07/21 13:06:18;;;;;;;4.53;4.20;;;27.10;51.00;;;;;;5012197;28;20467;-48
2022/07/21 13:08:49;;;;;;;4.60;4.30;;;27.00;51.00;;;;;;5013239;28;20442;-47
2022/07/21 13:11:20;;;;;;;6.07;5.67;;;27.10;50.70;;;;;;5018042;28;20438;-48
2022/07/21 13:13:53;;;;;;;5.70;5.20;;;27.10;51.80;;;;;;5025735;28;20482;-48
2022/07/21 13:16:24;;;;;;;4.70;4.30;;;27.00;51.60;;;;;;5010970;28;20547;-49